sensor_id;sensor_type;location;lat;lon;timestamp;pressure;altitude;pressure_sealevel;temperature;humidity
44313;BME280;38833;51.142;-0.974;2023-09-30T00:00:01;101016.23;;;20.83;39.58
44313;BME280;38833;51.142;-0.974;2023-09-30T00:02:34;101020.86;;;20.73;39.64
44313;BME280;38833;51.142;-0.974;2023-09-30T00:05:08;101024.52;;;20.69;39.68
44313;BME280;38833;51.142;-0.974;2023-09-30T00:07:42;101034.28;;;21.04;39.53
44313;BME280;38833;51.142;-0.974;2023-09-30T00:10:15;101040.09;;;20.73;39.51
44313;BME280;38833;51.142;-0.974;2023-09-30T00:12:48;101043.84;;;20.97;39.51
44313;BME280;38833;51.142;-0.974;2023-09-30T00:15:22;101039.98;;;20.65;39.60
44313;BME280;38833;51.142;-0.974;2023-09-30T00:17:55;101030.60;;;20.71;39.45
44313;BME280;38833;51.142;-0.974;2023-09-30T00:20:29;101023.82;;;20.61;39.53
44313;BME280;38833;51.142;-0.974;2023-09-30T00:23:02;101025.20;;;20.67;39.48
44313;BME280;38833;51.142;-0.974;2023-09-30T00:25:36;101021.73;;;20.94;39.46
44313;BME280;38833;51.142;-0.974;2023-09-30T00:28:09;101028.05;;;20.64;39.47
44313;BME280;38833;51.142;-0.974;2023-09-30T00:30:43;101032.75;;;20.87;39.44
44313;BME280;38833;51.142;-0.974;2023-09-30T00:33:16;101033.19;;;21.06;39.47
44313;BME280;38833;51.142;-0.974;2023-09-30T00:35:49;101024.80;;;20.94;39.34
44313;BME280;38833;51.142;-0.974;2023-09-30T00:38:23;101027.61;;;20.50;39.59
44313;BME280;38833;51.142;-0.974;2023-09-30T00:40:56;101030.32;;;20.44;39.70
44313;BME280;38833;51.142;-0.974;2023-09-30T00:43:29;101031.32;;;20.79;39.58
44313;BME280;38833;51.142;-0.974;2023-09-30T00:46:06;101033.40;;;20.76;39.58
44313;BME280;38833;51.142;-0.974;2023-09-30T00:48:42;101038.92;;;20.72;39.63
44313;BME280;38833;51.142;-0.974;2023-09-30T00:51:15;101042.14;;;20.71;39.61
44313;BME280;38833;51.142;-0.974;2023-09-30T00:53:49;101038.71;;;20.91;39.61
44313;BME280;38833;51.142;-0.974;2023-09-30T00:56:30;101047.35;;;20.46;39.50
44313;BME280;38833;51.142;-0.974;2023-09-30T00:59:03;101041.47;;;20.37;39.62
44313;BME280;38833;51.142;-0.974;2023-09-30T01:01:37;101044.66;;;21.03;39.32
44313;BME280;38833;51.142;-0.974;2023-09-30T01:04:16;101048.90;;;20.38;39.47
44313;BME280;38833;51.142;-0.974;2023-09-30T01:06:50;101046.52;;;20.37;39.42
44313;BME280;38833;51.142;-0.974;2023-09-30T01:09:24;101041.41;;;20.59;39.45
44313;BME280;38833;51.142;-0.974;2023-09-30T01:11:58;101043.27;;;20.52;39.46
44313;BME280;38833;51.142;-0.974;2023-09-30T01:14:32;101045.04;;;20.72;39.42
44313;BME280;38833;51.142;-0.974;2023-09-30T01:17:06;101042.89;;;20.34;39.25
44313;BME280;38833;51.142;-0.974;2023-09-30T01:19:39;101043.98;;;20.73;39.34
44313;BME280;38833;51.142;-0.974;2023-09-30T01:22:12;101042.51;;;20.21;39.35
44313;BME280;38833;51.142;-0.974;2023-09-30T01:24:46;101045.09;;;20.68;39.41
44313;BME280;38833;51.142;-0.974;2023-09-30T01:27:19;101042.45;;;20.75;39.28
44313;BME280;38833;51.142;-0.974;2023-09-30T01:29:52;101031.55;;;20.43;39.39
44313;BME280;38833;51.142;-0.974;2023-09-30T01:32:26;101036.18;;;20.54;39.24
44313;BME280;38833;51.142;-0.974;2023-09-30T01:34:59;101037.00;;;20.24;39.22
44313;BME280;38833;51.142;-0.974;2023-09-30T01:37:33;101030.41;;;20.42;39.23
44313;BME280;38833;51.142;-0.974;2023-09-30T01:40:07;101034.66;;;20.40;39.21
44313;BME280;38833;51.142;-0.974;2023-09-30T01:42:41;101037.65;;;20.44;39.14
44313;BME280;38833;51.142;-0.974;2023-09-30T01:45:14;101030.08;;;20.37;39.19
44313;BME280;38833;51.142;-0.974;2023-09-30T01:47:48;101028.79;;;20.29;39.24
44313;BME280;38833;51.142;-0.974;2023-09-30T01:50:21;101023.93;;;20.51;39.23
44313;BME280;38833;51.142;-0.974;2023-09-30T01:52:55;101028.47;;;20.57;39.10
44313;BME280;38833;51.142;-0.974;2023-09-30T01:55:28;101035.98;;;20.46;39.23
44313;BME280;38833;51.142;-0.974;2023-09-30T01:58:02;101034.22;;;20.32;39.07
44313;BME280;38833;51.142;-0.974;2023-09-30T02:00:35;101030.37;;;20.51;39.14
44313;BME280;38833;51.142;-0.974;2023-09-30T02:03:08;101022.49;;;20.25;39.13
44313;BME280;38833;51.142;-0.974;2023-09-30T02:05:42;101013.46;;;20.62;38.92
44313;BME280;38833;51.142;-0.974;2023-09-30T02:08:16;101007.77;;;20.39;39.15
44313;BME280;38833;51.142;-0.974;2023-09-30T02:10:49;100997.18;;;20.25;38.99
44313;BME280;38833;51.142;-0.974;2023-09-30T02:13:23;100990.61;;;20.13;39.14
44313;BME280;38833;51.142;-0.974;2023-09-30T02:15:56;101004.99;;;20.39;39.04
44313;BME280;38833;51.142;-0.974;2023-09-30T02:18:30;101010.57;;;20.09;39.15
44313;BME280;38833;51.142;-0.974;2023-09-30T02:21:03;101006.65;;;20.36;39.03
44313;BME280;38833;51.142;-0.974;2023-09-30T02:23:36;101003.26;;;20.17;39.27
44313;BME280;38833;51.142;-0.974;2023-09-30T02:26:10;101001.54;;;20.18;39.21
44313;BME280;38833;51.142;-0.974;2023-09-30T02:28:44;100993.63;;;20.21;39.16
44313;BME280;38833;51.142;-0.974;2023-09-30T02:31:17;100988.45;;;20.19;39.14
44313;BME280;38833;51.142;-0.974;2023-09-30T02:33:50;100991.12;;;20.01;39.07
44313;BME280;38833;51.142;-0.974;2023-09-30T02:36:24;100989.68;;;20.17;39.10
44313;BME280;38833;51.142;-0.974;2023-09-30T02:38:57;100988.31;;;20.22;38.99
44313;BME280;38833;51.142;-0.974;2023-09-30T02:41:30;100983.90;;;20.11;39.08
44313;BME280;38833;51.142;-0.974;2023-09-30T02:44:04;100978.84;;;20.08;39.08
44313;BME280;38833;51.142;-0.974;2023-09-30T02:46:38;100974.96;;;20.06;39.04
44313;BME280;38833;51.142;-0.974;2023-09-30T02:49:11;100980.74;;;20.09;38.96
44313;BME280;38833;51.142;-0.974;2023-09-30T02:51:44;100988.68;;;19.94;38.78
44313;BME280;38833;51.142;-0.974;2023-09-30T02:54:17;100985.93;;;20.11;38.79
44313;BME280;38833;51.142;-0.974;2023-09-30T02:56:51;100981.91;;;20.06;38.90
44313;BME280;38833;51.142;-0.974;2023-09-30T02:59:24;100983.97;;;20.14;38.67
44313;BME280;38833;51.142;-0.974;2023-09-30T03:01:57;100985.19;;;20.02;38.84
44313;BME280;38833;51.142;-0.974;2023-09-30T03:04:31;100983.50;;;20.14;38.64
44313;BME280;38833;51.142;-0.974;2023-09-30T03:07:04;100987.73;;;20.07;38.69
44313;BME280;38833;51.142;-0.974;2023-09-30T03:09:38;100986.54;;;19.96;38.81
44313;BME280;38833;51.142;-0.974;2023-09-30T03:12:11;100992.01;;;19.70;38.90
44313;BME280;38833;51.142;-0.974;2023-09-30T03:14:45;101003.07;;;19.90;38.91
44313;BME280;38833;51.142;-0.974;2023-09-30T03:17:18;100999.41;;;19.96;38.75
44313;BME280;38833;51.142;-0.974;2023-09-30T03:19:51;101000.43;;;19.87;38.84
44313;BME280;38833;51.142;-0.974;2023-09-30T03:22:25;101005.34;;;19.92;38.72
44313;BME280;38833;51.142;-0.974;2023-09-30T03:24:58;101001.98;;;20.22;38.56
44313;BME280;38833;51.142;-0.974;2023-09-30T03:27:33;101013.70;;;19.85;38.75
44313;BME280;38833;51.142;-0.974;2023-09-30T03:30:08;101020.38;;;19.86;38.71
44313;BME280;38833;51.142;-0.974;2023-09-30T03:32:42;101011.40;;;19.78;38.80
44313;BME280;38833;51.142;-0.974;2023-09-30T03:35:16;100999.68;;;19.87;38.66
44313;BME280;38833;51.142;-0.974;2023-09-30T03:37:49;101002.34;;;19.76;38.77
44313;BME280;38833;51.142;-0.974;2023-09-30T03:40:23;101003.32;;;19.70;38.84
44313;BME280;38833;51.142;-0.974;2023-09-30T03:42:56;100999.24;;;19.86;38.65
44313;BME280;38833;51.142;-0.974;2023-09-30T03:45:29;100998.59;;;19.69;38.84
44313;BME280;38833;51.142;-0.974;2023-09-30T03:48:03;100994.11;;;20.09;38.59
44313;BME280;38833;51.142;-0.974;2023-09-30T03:50:36;100986.33;;;19.68;38.81
44313;BME280;38833;51.142;-0.974;2023-09-30T03:53:10;100979.89;;;20.04;38.59
44313;BME280;38833;51.142;-0.974;2023-09-30T03:55:43;100969.48;;;19.16;38.83
44313;BME280;38833;51.142;-0.974;2023-09-30T03:58:16;100962.41;;;19.44;38.77
44313;BME280;38833;51.142;-0.974;2023-09-30T04:00:50;100954.72;;;19.89;38.78
44313;BME280;38833;51.142;-0.974;2023-09-30T04:03:23;100953.29;;;19.77;38.60
44313;BME280;38833;51.142;-0.974;2023-09-30T04:05:56;100956.58;;;19.76;38.62
44313;BME280;38833;51.142;-0.974;2023-09-30T04:08:29;100961.73;;;19.59;38.79
44313;BME280;38833;51.142;-0.974;2023-09-30T04:11:03;100962.37;;;19.72;38.56
44313;BME280;38833;51.142;-0.974;2023-09-30T04:13:37;100954.03;;;19.64;38.67
44313;BME280;38833;51.142;-0.974;2023-09-30T04:16:10;100939.67;;;19.83;38.42
44313;BME280;38833;51.142;-0.974;2023-09-30T04:18:44;100933.77;;;19.87;38.61
44313;BME280;38833;51.142;-0.974;2023-09-30T04:21:17;100943.63;;;19.49;38.81
44313;BME280;38833;51.142;-0.974;2023-09-30T04:23:50;100949.99;;;19.46;38.82
44313;BME280;38833;51.142;-0.974;2023-09-30T04:26:24;100943.60;;;19.47;38.82
44313;BME280;38833;51.142;-0.974;2023-09-30T04:28:57;100943.89;;;19.45;38.87
44313;BME280;38833;51.142;-0.974;2023-09-30T04:31:30;100950.47;;;19.46;38.82
44313;BME280;38833;51.142;-0.974;2023-09-30T04:34:04;100958.06;;;19.66;38.84
44313;BME280;38833;51.142;-0.974;2023-09-30T04:36:37;100961.69;;;19.48;38.76
44313;BME280;38833;51.142;-0.974;2023-09-30T04:39:10;100958.90;;;19.66;38.81
44313;BME280;38833;51.142;-0.974;2023-09-30T04:41:44;100956.16;;;19.60;38.89
44313;BME280;38833;51.142;-0.974;2023-09-30T04:44:17;100961.26;;;19.42;38.83
44313;BME280;38833;51.142;-0.974;2023-09-30T04:46:51;100955.99;;;19.63;38.81
44313;BME280;38833;51.142;-0.974;2023-09-30T04:49:24;100955.75;;;19.39;38.85
44313;BME280;38833;51.142;-0.974;2023-09-30T04:51:57;100952.98;;;19.45;38.78
44313;BME280;38833;51.142;-0.974;2023-09-30T04:54:31;100952.37;;;19.68;38.77
44313;BME280;38833;51.142;-0.974;2023-09-30T04:57:04;100955.09;;;19.39;38.84
44313;BME280;38833;51.142;-0.974;2023-09-30T04:59:37;100958.49;;;19.37;38.87
44313;BME280;38833;51.142;-0.974;2023-09-30T05:02:11;100956.14;;;19.38;38.85
44313;BME280;38833;51.142;-0.974;2023-09-30T05:04:44;100956.36;;;19.43;38.79
44313;BME280;38833;51.142;-0.974;2023-09-30T05:07:17;100952.63;;;19.35;38.93
44313;BME280;38833;51.142;-0.974;2023-09-30T05:09:51;100950.17;;;19.36;38.90
44313;BME280;38833;51.142;-0.974;2023-09-30T05:12:24;100955.59;;;19.52;38.99
44313;BME280;38833;51.142;-0.974;2023-09-30T05:14:57;100959.70;;;19.53;38.99
44313;BME280;38833;51.142;-0.974;2023-09-30T05:17:30;100951.09;;;19.37;38.91
44313;BME280;38833;51.142;-0.974;2023-09-30T05:20:05;100948.92;;;19.28;39.01
44313;BME280;38833;51.142;-0.974;2023-09-30T05:22:38;100957.60;;;19.51;38.98
44313;BME280;38833;51.142;-0.974;2023-09-30T05:25:12;100962.71;;;19.26;39.01
44313;BME280;38833;51.142;-0.974;2023-09-30T05:27:45;100967.49;;;19.35;38.87
44313;BME280;38833;51.142;-0.974;2023-09-30T05:30:19;100964.18;;;19.30;38.91
44313;BME280;38833;51.142;-0.974;2023-09-30T05:32:52;100964.64;;;19.57;38.84
44313;BME280;38833;51.142;-0.974;2023-09-30T05:35:26;100960.90;;;19.43;39.00
44313;BME280;38833;51.142;-0.974;2023-09-30T05:37:59;100951.66;;;19.55;38.80
44313;BME280;38833;51.142;-0.974;2023-09-30T05:40:32;100942.10;;;19.41;38.62
44313;BME280;38833;51.142;-0.974;2023-09-30T05:43:06;100947.79;;;19.62;38.34
44313;BME280;38833;51.142;-0.974;2023-09-30T05:45:39;100953.95;;;19.65;38.29
44313;BME280;38833;51.142;-0.974;2023-09-30T05:48:13;100959.21;;;19.82;38.38
44313;BME280;38833;51.142;-0.974;2023-09-30T05:50:46;100959.07;;;19.97;38.22
44313;BME280;38833;51.142;-0.974;2023-09-30T05:53:20;100963.59;;;19.91;38.03
44313;BME280;38833;51.142;-0.974;2023-09-30T05:55:53;100966.97;;;20.34;37.75
44313;BME280;38833;51.142;-0.974;2023-09-30T05:58:26;100974.95;;;20.18;37.68
44313;BME280;38833;51.142;-0.974;2023-09-30T06:01:00;100982.97;;;20.10;37.85
44313;BME280;38833;51.142;-0.974;2023-09-30T06:03:33;100985.54;;;20.26;37.65
44313;BME280;38833;51.142;-0.974;2023-09-30T06:06:11;100989.85;;;20.27;37.63
44313;BME280;38833;51.142;-0.974;2023-09-30T06:08:45;100986.71;;;20.17;37.78
44313;BME280;38833;51.142;-0.974;2023-09-30T06:11:19;100982.16;;;19.99;37.81
44313;BME280;38833;51.142;-0.974;2023-09-30T06:13:52;100977.78;;;20.51;37.43
44313;BME280;38833;51.142;-0.974;2023-09-30T06:16:26;100975.31;;;20.03;37.41
44313;BME280;38833;51.142;-0.974;2023-09-30T06:18:59;100982.40;;;20.58;37.32
44313;BME280;38833;51.142;-0.974;2023-09-30T06:21:33;100987.23;;;20.60;37.32
44313;BME280;38833;51.142;-0.974;2023-09-30T06:24:06;100985.59;;;20.75;37.16
44313;BME280;38833;51.142;-0.974;2023-09-30T06:26:40;101002.76;;;20.52;37.22
44313;BME280;38833;51.142;-0.974;2023-09-30T06:29:13;101012.35;;;20.82;37.15
44313;BME280;38833;51.142;-0.974;2023-09-30T06:31:46;101009.90;;;20.47;37.33
44313;BME280;38833;51.142;-0.974;2023-09-30T06:34:20;101003.14;;;20.28;37.24
44313;BME280;38833;51.142;-0.974;2023-09-30T06:36:53;101001.93;;;20.84;36.88
44313;BME280;38833;51.142;-0.974;2023-09-30T06:39:26;101003.99;;;20.60;36.86
44313;BME280;38833;51.142;-0.974;2023-09-30T06:42:00;101003.93;;;20.52;36.98
44313;BME280;38833;51.142;-0.974;2023-09-30T06:44:33;101002.52;;;20.98;36.78
44313;BME280;38833;51.142;-0.974;2023-09-30T06:47:06;101000.74;;;20.72;36.79
44313;BME280;38833;51.142;-0.974;2023-09-30T06:49:39;101004.34;;;21.07;36.68
44313;BME280;38833;51.142;-0.974;2023-09-30T06:52:13;101000.34;;;21.17;36.85
44313;BME280;38833;51.142;-0.974;2023-09-30T06:54:46;101000.00;;;20.68;36.87
44313;BME280;38833;51.142;-0.974;2023-09-30T06:57:19;100990.82;;;21.27;36.76
44313;BME280;38833;51.142;-0.974;2023-09-30T06:59:53;100987.26;;;20.97;36.54
44313;BME280;38833;51.142;-0.974;2023-09-30T07:02:26;100994.38;;;20.77;36.80
44313;BME280;38833;51.142;-0.974;2023-09-30T07:04:59;100993.43;;;21.02;36.52
44313;BME280;38833;51.142;-0.974;2023-09-30T07:07:33;100999.88;;;21.19;36.24
44313;BME280;38833;51.142;-0.974;2023-09-30T07:10:07;101005.45;;;21.28;36.13
44313;BME280;38833;51.142;-0.974;2023-09-30T07:12:40;101011.09;;;21.34;36.06
44313;BME280;38833;51.142;-0.974;2023-09-30T07:15:13;101011.55;;;21.27;36.18
44313;BME280;38833;51.142;-0.974;2023-09-30T07:17:47;101016.24;;;21.18;36.35
44313;BME280;38833;51.142;-0.974;2023-09-30T07:20:20;101023.60;;;21.24;36.25
44313;BME280;38833;51.142;-0.974;2023-09-30T07:22:53;101030.33;;;21.23;36.28
44313;BME280;38833;51.142;-0.974;2023-09-30T07:25:27;101042.35;;;21.25;36.28
44313;BME280;38833;51.142;-0.974;2023-09-30T07:28:01;101047.78;;;21.29;36.22
44313;BME280;38833;51.142;-0.974;2023-09-30T07:30:34;101046.00;;;21.29;36.21
44313;BME280;38833;51.142;-0.974;2023-09-30T07:33:08;101037.29;;;21.20;36.31
44313;BME280;38833;51.142;-0.974;2023-09-30T07:35:41;101032.37;;;21.25;36.25
44313;BME280;38833;51.142;-0.974;2023-09-30T07:38:14;101031.16;;;21.25;36.27
44313;BME280;38833;51.142;-0.974;2023-09-30T07:40:48;101029.83;;;21.21;36.32
44313;BME280;38833;51.142;-0.974;2023-09-30T07:43:22;101036.81;;;21.17;36.39
44313;BME280;38833;51.142;-0.974;2023-09-30T07:45:55;101040.22;;;21.25;36.31
44313;BME280;38833;51.142;-0.974;2023-09-30T07:48:28;101039.80;;;21.01;36.32
44313;BME280;38833;51.142;-0.974;2023-09-30T07:51:02;101039.75;;;21.19;36.39
44313;BME280;38833;51.142;-0.974;2023-09-30T07:53:35;101041.15;;;21.20;36.42
44313;BME280;38833;51.142;-0.974;2023-09-30T07:56:09;101043.97;;;21.21;36.41
44313;BME280;38833;51.142;-0.974;2023-09-30T07:58:43;101047.08;;;21.22;36.41
44313;BME280;38833;51.142;-0.974;2023-09-30T08:01:16;101051.59;;;21.04;36.40
44313;BME280;38833;51.142;-0.974;2023-09-30T08:03:50;101053.91;;;21.19;36.50
44313;BME280;38833;51.142;-0.974;2023-09-30T08:06:24;101053.91;;;21.21;36.53
44313;BME280;38833;51.142;-0.974;2023-09-30T08:08:57;101051.27;;;21.20;36.57
44313;BME280;38833;51.142;-0.974;2023-09-30T08:11:30;101036.36;;;21.14;36.72
44313;BME280;38833;51.142;-0.974;2023-09-30T08:14:04;101043.47;;;21.16;36.70
44313;BME280;38833;51.142;-0.974;2023-09-30T08:16:37;101049.21;;;21.27;36.63
44313;BME280;38833;51.142;-0.974;2023-09-30T08:19:10;101051.30;;;21.21;36.74
44313;BME280;38833;51.142;-0.974;2023-09-30T08:21:44;101068.25;;;20.84;36.95
44313;BME280;38833;51.142;-0.974;2023-09-30T08:24:17;101072.99;;;21.23;36.80
44313;BME280;38833;51.142;-0.974;2023-09-30T08:26:51;101062.11;;;21.24;36.81
44313;BME280;38833;51.142;-0.974;2023-09-30T08:29:24;101055.44;;;21.51;36.95
44313;BME280;38833;51.142;-0.974;2023-09-30T08:31:58;101055.58;;;21.35;37.09
44313;BME280;38833;51.142;-0.974;2023-09-30T08:34:31;101051.66;;;21.60;37.19
44313;BME280;38833;51.142;-0.974;2023-09-30T08:37:04;101045.40;;;21.37;37.41
44313;BME280;38833;51.142;-0.974;2023-09-30T08:39:38;101044.31;;;21.48;37.66
44313;BME280;38833;51.142;-0.974;2023-09-30T08:42:11;101049.11;;;21.50;37.69
44313;BME280;38833;51.142;-0.974;2023-09-30T08:44:45;101048.05;;;21.56;37.61
44313;BME280;38833;51.142;-0.974;2023-09-30T08:47:19;101053.61;;;21.75;37.66
44313;BME280;38833;51.142;-0.974;2023-09-30T08:49:54;101058.03;;;21.76;37.80
44313;BME280;38833;51.142;-0.974;2023-09-30T08:52:30;101040.98;;;21.65;37.93
44313;BME280;38833;51.142;-0.974;2023-09-30T08:55:04;101035.56;;;21.99;37.98
44313;BME280;38833;51.142;-0.974;2023-09-30T08:57:38;101040.15;;;21.68;38.11
44313;BME280;38833;51.142;-0.974;2023-09-30T09:00:13;101041.86;;;21.60;38.14
44313;BME280;38833;51.142;-0.974;2023-09-30T09:02:46;101045.45;;;21.64;38.15
44313;BME280;38833;51.142;-0.974;2023-09-30T09:05:20;101043.28;;;21.59;38.26
44313;BME280;38833;51.142;-0.974;2023-09-30T09:07:53;101035.07;;;21.40;38.43
44313;BME280;38833;51.142;-0.974;2023-09-30T09:10:26;101028.40;;;21.52;38.36
44313;BME280;38833;51.142;-0.974;2023-09-30T09:12:59;101020.78;;;21.41;38.54
44313;BME280;38833;51.142;-0.974;2023-09-30T09:15:33;101029.51;;;21.55;38.89
44313;BME280;38833;51.142;-0.974;2023-09-30T09:18:06;101033.20;;;21.09;39.79
44313;BME280;38833;51.142;-0.974;2023-09-30T09:20:40;101030.58;;;21.25;39.91
44313;BME280;38833;51.142;-0.974;2023-09-30T09:23:16;101030.15;;;21.26;40.47
44313;BME280;38833;51.142;-0.974;2023-09-30T09:25:49;101018.06;;;21.46;40.98
44313;BME280;38833;51.142;-0.974;2023-09-30T09:28:34;101015.32;;;21.42;41.03
44313;BME280;38833;51.142;-0.974;2023-09-30T09:31:24;101011.92;;;21.63;41.01
44313;BME280;38833;51.142;-0.974;2023-09-30T09:33:58;101004.92;;;21.55;41.08
44313;BME280;38833;51.142;-0.974;2023-09-30T09:36:41;101014.61;;;21.60;41.08
44313;BME280;38833;51.142;-0.974;2023-09-30T09:39:15;101007.16;;;21.29;41.21
44313;BME280;38833;51.142;-0.974;2023-09-30T09:41:52;101004.33;;;21.54;41.03
44313;BME280;38833;51.142;-0.974;2023-09-30T09:44:25;101010.23;;;21.78;41.11
44313;BME280;38833;51.142;-0.974;2023-09-30T09:47:01;101003.80;;;21.62;41.12
44313;BME280;38833;51.142;-0.974;2023-09-30T09:49:38;101000.97;;;21.54;41.16
44313;BME280;38833;51.142;-0.974;2023-09-30T09:52:12;101010.35;;;21.71;41.14
44313;BME280;38833;51.142;-0.974;2023-09-30T09:54:46;101005.11;;;21.90;40.99
44313;BME280;38833;51.142;-0.974;2023-09-30T09:57:20;100998.68;;;21.79;41.30
44313;BME280;38833;51.142;-0.974;2023-09-30T09:59:54;101003.65;;;21.84;40.90
44313;BME280;38833;51.142;-0.974;2023-09-30T10:02:28;101009.20;;;22.02;41.09
44313;BME280;38833;51.142;-0.974;2023-09-30T10:05:04;101017.05;;;21.92;41.35
44313;BME280;38833;51.142;-0.974;2023-09-30T10:07:41;101016.51;;;21.98;41.37
44313;BME280;38833;51.142;-0.974;2023-09-30T10:10:19;101013.27;;;22.21;41.01
44313;BME280;38833;51.142;-0.974;2023-09-30T10:12:54;101008.97;;;21.89;41.40
44313;BME280;38833;51.142;-0.974;2023-09-30T10:15:37;101007.94;;;22.12;41.51
44313;BME280;38833;51.142;-0.974;2023-09-30T10:18:12;101007.07;;;22.07;41.30
44313;BME280;38833;51.142;-0.974;2023-09-30T10:20:45;101008.77;;;22.18;41.49
44313;BME280;38833;51.142;-0.974;2023-09-30T10:23:21;100998.32;;;22.35;41.74
44313;BME280;38833;51.142;-0.974;2023-09-30T10:26:14;100991.30;;;22.46;41.63
44313;BME280;38833;51.142;-0.974;2023-09-30T10:28:48;100995.04;;;22.49;41.73
44313;BME280;38833;51.142;-0.974;2023-09-30T10:31:22;100988.47;;;22.27;41.84
44313;BME280;38833;51.142;-0.974;2023-09-30T10:34:27;100983.00;;;22.25;41.92
44313;BME280;38833;51.142;-0.974;2023-09-30T10:37:20;100973.27;;;22.25;42.11
44313;BME280;38833;51.142;-0.974;2023-09-30T10:39:55;100972.49;;;22.13;41.93
44313;BME280;38833;51.142;-0.974;2023-09-30T10:43:02;100965.71;;;22.20;41.79
44313;BME280;38833;51.142;-0.974;2023-09-30T10:45:45;100959.25;;;22.74;41.79
44313;BME280;38833;51.142;-0.974;2023-09-30T10:48:50;100955.57;;;22.66;41.57
44313;BME280;38833;51.142;-0.974;2023-09-30T10:51:24;100956.79;;;22.18;42.26
44313;BME280;38833;51.142;-0.974;2023-09-30T10:53:57;100960.51;;;22.20;42.29
44313;BME280;38833;51.142;-0.974;2023-09-30T10:56:33;100956.72;;;22.75;42.11
44313;BME280;38833;51.142;-0.974;2023-09-30T10:59:06;100956.55;;;22.35;42.02
44313;BME280;38833;51.142;-0.974;2023-09-30T11:01:40;100951.96;;;22.06;42.42
44313;BME280;38833;51.142;-0.974;2023-09-30T11:04:13;100957.60;;;21.76;42.89
44313;BME280;38833;51.142;-0.974;2023-09-30T11:06:46;100965.59;;;22.19;42.36
44313;BME280;38833;51.142;-0.974;2023-09-30T11:09:21;100964.26;;;22.50;41.83
44313;BME280;38833;51.142;-0.974;2023-09-30T11:11:55;100961.63;;;22.04;42.17
44313;BME280;38833;51.142;-0.974;2023-09-30T11:14:29;100961.95;;;22.15;42.02
44313;BME280;38833;51.142;-0.974;2023-09-30T11:17:03;100958.06;;;22.19;41.97
44313;BME280;38833;51.142;-0.974;2023-09-30T11:19:46;100952.81;;;22.39;41.64
44313;BME280;38833;51.142;-0.974;2023-09-30T11:22:19;100950.75;;;22.85;41.76
44313;BME280;38833;51.142;-0.974;2023-09-30T11:24:53;100947.02;;;22.82;41.79
44313;BME280;38833;51.142;-0.974;2023-09-30T11:27:27;100945.82;;;22.62;41.72
44313;BME280;38833;51.142;-0.974;2023-09-30T11:30:03;100947.27;;;22.93;41.81
44313;BME280;38833;51.142;-0.974;2023-09-30T11:32:36;100942.27;;;22.44;42.38
44313;BME280;38833;51.142;-0.974;2023-09-30T11:35:10;100939.06;;;22.25;42.53
44313;BME280;38833;51.142;-0.974;2023-09-30T11:37:54;100938.60;;;22.49;42.71
44313;BME280;38833;51.142;-0.974;2023-09-30T11:40:27;100931.29;;;22.48;42.35
44313;BME280;38833;51.142;-0.974;2023-09-30T11:43:08;100928.14;;;22.51;42.52
44313;BME280;38833;51.142;-0.974;2023-09-30T11:45:41;100929.22;;;22.33;42.80
44313;BME280;38833;51.142;-0.974;2023-09-30T11:48:18;100930.30;;;22.47;42.45
44313;BME280;38833;51.142;-0.974;2023-09-30T11:50:52;100915.50;;;22.65;42.19
44313;BME280;38833;51.142;-0.974;2023-09-30T11:53:25;100912.89;;;22.43;42.59
44313;BME280;38833;51.142;-0.974;2023-09-30T11:56:00;100910.70;;;22.82;42.61
44313;BME280;38833;51.142;-0.974;2023-09-30T11:58:33;100911.21;;;22.82;42.29
44313;BME280;38833;51.142;-0.974;2023-09-30T12:01:06;100915.18;;;22.46;42.64
44313;BME280;38833;51.142;-0.974;2023-09-30T12:03:40;100914.36;;;22.65;42.21
44313;BME280;38833;51.142;-0.974;2023-09-30T12:06:13;100898.72;;;22.82;41.82
44313;BME280;38833;51.142;-0.974;2023-09-30T12:08:46;100889.05;;;22.62;42.19
44313;BME280;38833;51.142;-0.974;2023-09-30T12:11:20;100891.76;;;22.84;41.72
44313;BME280;38833;51.142;-0.974;2023-09-30T12:13:53;100885.54;;;23.07;41.80
44313;BME280;38833;51.142;-0.974;2023-09-30T12:16:27;100873.10;;;22.50;42.39
44313;BME280;38833;51.142;-0.974;2023-09-30T12:19:00;100868.92;;;22.96;42.70
44313;BME280;38833;51.142;-0.974;2023-09-30T12:21:34;100872.74;;;23.20;42.65
44313;BME280;38833;51.142;-0.974;2023-09-30T12:24:07;100876.46;;;23.01;42.69
44313;BME280;38833;51.142;-0.974;2023-09-30T12:26:41;100869.15;;;22.95;43.20
44313;BME280;38833;51.142;-0.974;2023-09-30T12:29:14;100875.07;;;23.26;42.32
44313;BME280;38833;51.142;-0.974;2023-09-30T12:31:50;100874.55;;;23.19;42.32
44313;BME280;38833;51.142;-0.974;2023-09-30T12:34:24;100872.74;;;23.51;41.85
44313;BME280;38833;51.142;-0.974;2023-09-30T12:36:57;100873.52;;;23.39;42.10
44313;BME280;38833;51.142;-0.974;2023-09-30T12:39:31;100872.45;;;23.46;42.08
44313;BME280;38833;51.142;-0.974;2023-09-30T12:42:04;100871.09;;;23.24;41.92
44313;BME280;38833;51.142;-0.974;2023-09-30T12:44:38;100867.85;;;23.45;42.09
44313;BME280;38833;51.142;-0.974;2023-09-30T12:47:11;100865.51;;;23.40;41.99
44313;BME280;38833;51.142;-0.974;2023-09-30T12:49:45;100867.47;;;23.38;42.32
44313;BME280;38833;51.142;-0.974;2023-09-30T12:52:18;100866.36;;;23.22;42.35
44313;BME280;38833;51.142;-0.974;2023-09-30T12:54:52;100868.29;;;23.32;42.22
44313;BME280;38833;51.142;-0.974;2023-09-30T12:57:25;100867.24;;;23.19;42.02
44313;BME280;38833;51.142;-0.974;2023-09-30T12:59:58;100860.65;;;23.31;42.08
44313;BME280;38833;51.142;-0.974;2023-09-30T13:02:32;100856.48;;;23.26;42.10
44313;BME280;38833;51.142;-0.974;2023-09-30T13:05:05;100851.59;;;23.38;41.80
44313;BME280;38833;51.142;-0.974;2023-09-30T13:07:39;100849.07;;;23.43;41.82
44313;BME280;38833;51.142;-0.974;2023-09-30T13:10:12;100851.06;;;23.39;41.89
44313;BME280;38833;51.142;-0.974;2023-09-30T13:12:46;100853.32;;;23.47;41.54
44313;BME280;38833;51.142;-0.974;2023-09-30T13:15:19;100856.73;;;22.96;41.69